Time;durP1;ratioP1;P1;durP2;ratioP2;P2;SDS_P1;SDS_P2;PMS_P1;PMS_P2;Temp;Humidity;BMP_temperature;BMP_pressure;BME280_temperature;BME280_humidity;BME280_pressure;Samples;Min_cycle;Max_cycle;Signal;HPM_P1;HPM_P2
2022/06/18 00:00:19;;;;;;;3.72;3.17;;;20.70;72.20;;;;;;2070272;28;20033;-69
2022/06/18 00:01:20;;;;;;;4.53;2.80;;;20.80;72.50;;;;;;2070498;28;20022;-70
2022/06/18 00:02:21;;;;;;;4.10;2.88;;;20.70;73.10;;;;;;2071041;28;20520;-69
2022/06/18 00:03:24;;;;;;;3.97;3.20;;;20.70;72.50;;;;;;2070949;28;20091;-69
2022/06/18 00:04:25;;;;;;;4.18;2.67;;;20.70;72.50;;;;;;2070907;28;20037;-70
2022/06/18 00:05:26;;;;;;;3.47;2.70;;;20.80;72.70;;;;;;2070999;28;20030;-69
2022/06/18 00:06:29;;;;;;;3.63;2.70;;;20.70;72.70;;;;;;2070349;28;20034;-69
2022/06/18 00:07:30;;;;;;;3.03;2.72;;;20.70;72.80;;;;;;2070357;28;20109;-69
2022/06/18 00:08:38;;;;;;;4.07;2.70;;;20.60;72.70;;;;;;2070822;28;20033;-69
2022/06/18 00:09:41;;;;;;;4.57;2.67;;;20.60;72.90;;;;;;2071115;28;20026;-69
2022/06/18 00:10:43;;;;;;;3.13;2.55;;;20.60;73.00;;;;;;2070520;28;20046;-70
2022/06/18 00:14:34;;;;;;;3.40;2.58;;;20.50;73.40;;;;;;2071176;28;20069;-69
2022/06/18 00:15:37;;;;;;;3.22;2.70;;;20.50;73.50;;;;;;2070652;28;20026;-70
2022/06/18 00:16:38;;;;;;;5.15;2.85;;;20.50;73.60;;;;;;2070771;28;20090;-70
2022/06/18 00:17:39;;;;;;;4.70;2.88;;;20.40;73.70;;;;;;2071173;28;20123;-69
2022/06/18 00:18:40;;;;;;;3.17;2.80;;;20.40;73.70;;;;;;2070894;28;20069;-70
2022/06/18 00:19:41;;;;;;;4.88;2.78;;;20.40;73.80;;;;;;2071100;28;20459;-68
2022/06/18 00:20:42;;;;;;;2.63;2.42;;;20.40;73.90;;;;;;2070730;28;20055;-69
2022/06/18 00:21:43;;;;;;;6.07;2.60;;;20.30;74.00;;;;;;2070621;28;20061;-69
2022/06/18 00:22:47;;;;;;;2.78;2.58;;;20.30;74.10;;;;;;2070803;28;20030;-69
2022/06/18 00:23:47;;;;;;;4.80;2.90;;;20.30;74.10;;;;;;2070825;28;20045;-69
2022/06/18 00:24:50;;;;;;;3.88;2.60;;;20.30;74.30;;;;;;2070937;28;20022;-69
2022/06/18 00:25:52;;;;;;;3.97;2.70;;;20.30;74.30;;;;;;2070195;28;20071;-69
2022/06/18 00:26:53;;;;;;;5.82;3.00;;;20.30;74.50;;;;;;2070186;28;20018;-70
2022/06/18 00:27:54;;;;;;;5.10;2.85;;;20.20;74.50;;;;;;2071029;28;20030;-68
2022/06/18 00:28:55;;;;;;;4.22;2.78;;;20.20;74.60;;;;;;2070875;28;20034;-70
2022/06/18 00:29:56;;;;;;;3.10;2.80;;;20.20;74.70;;;;;;2070451;28;20113;-69
2022/06/18 00:30:57;;;;;;;3.95;2.72;;;20.20;74.80;;;;;;2062063;28;20038;-69
2022/06/18 00:31:58;;;;;;;3.08;2.40;;;20.10;74.80;;;;;;2070340;28;20484;-69
2022/06/18 00:32:58;;;;;;;4.43;2.95;;;20.10;75.00;;;;;;2070957;28;20022;-69
2022/06/18 00:33:59;;;;;;;4.75;2.50;;;20.10;75.10;;;;;;2070969;28;20184;-69
2022/06/18 00:35:00;;;;;;;3.92;2.60;;;20.10;75.20;;;;;;2070955;28;20438;-69
2022/06/18 00:36:03;;;;;;;3.75;2.70;;;20.10;75.30;;;;;;2070952;28;20108;-69
2022/06/18 00:37:05;;;;;;;3.28;2.63;;;20.00;75.30;;;;;;2062114;28;20522;-68
2022/06/18 00:38:10;;;;;;;2.75;2.53;;;20.10;75.50;;;;;;2062212;28;20025;-69
2022/06/18 00:39:16;;;;;;;3.78;2.35;;;20.00;75.60;;;;;;2069915;28;20081;-68
2022/06/18 00:40:26;;;;;;;3.15;2.67;;;20.00;75.70;;;;;;2070333;28;20033;-69
2022/06/18 00:41:26;;;;;;;3.38;2.80;;;20.00;75.90;;;;;;2070310;28;20124;-69
2022/06/18 00:42:30;;;;;;;2.83;2.60;;;20.00;76.00;;;;;;2070065;28;20037;-69
2022/06/18 00:43:45;;;;;;;2.75;2.55;;;19.90;76.10;;;;;;2070713;28;20030;-68
2022/06/18 00:44:53;;;;;;;3.25;2.70;;;20.00;76.30;;;;;;2070864;28;20473;-69
2022/06/18 00:46:10;;;;;;;3.83;2.88;;;19.90;76.30;;;;;;2070928;28;20037;-67
2022/06/18 00:47:22;;;;;;;3.85;2.70;;;19.90;76.50;;;;;;2070897;28;20115;-69
2022/06/18 00:48:51;;;;;;;3.15;2.53;;;19.90;76.70;;;;;;2070605;28;20053;-70
2022/06/18 00:50:25;;;;;;;3.50;2.80;;;19.90;77.00;;;;;;2070884;28;20423;-70
2022/06/18 00:51:34;;;;;;;4.25;2.90;;;19.90;77.10;;;;;;2071001;28;20638;-70
2022/06/18 00:53:05;;;;;;;3.25;2.70;;;19.80;77.00;;;;;;2070924;28;20400;-69
2022/06/18 00:54:25;;;;;;;3.15;2.70;;;19.80;77.20;;;;;;2084346;28;20045;-69
2022/06/18 00:55:37;;;;;;;3.00;2.78;;;19.80;77.40;;;;;;2070976;28;20033;-70
2022/06/18 00:56:46;;;;;;;3.78;2.97;;;19.70;77.50;;;;;;2070051;28;20036;-70
2022/06/18 00:58:01;;;;;;;5.97;2.88;;;19.70;77.80;;;;;;2062924;28;20405;-69
2022/06/18 00:59:07;;;;;;;4.22;3.00;;;19.70;77.90;;;;;;2070068;28;20034;-70
2022/06/18 01:00:11;;;;;;;4.47;3.00;;;19.70;78.00;;;;;;2070473;28;20026;-69
2022/06/18 01:01:21;;;;;;;3.75;2.60;;;19.70;78.20;;;;;;2070810;28;20029;-69
2022/06/18 01:02:32;;;;;;;3.42;2.78;;;19.70;78.60;;;;;;2070165;28;20376;-70
2022/06/18 01:03:34;;;;;;;;;;;19.70;79.60;;;;;;2070704;28;20063;-68
2022/06/18 01:04:38;;;;;;;4.50;2.97;;;19.70;80.40;;;;;;2070723;28;19909;-70
2022/06/18 01:05:40;;;;;;;5.72;2.88;;;19.70;80.70;;;;;;2061877;28;20023;-69
2022/06/18 01:06:40;;;;;;;3.53;3.20;;;19.70;80.80;;;;;;2095682;28;20117;-69
2022/06/18 01:07:42;;;;;;;3.03;2.72;;;19.60;80.70;;;;;;2061837;28;20030;-69
2022/06/18 01:08:45;;;;;;;4.20;3.40;;;19.60;80.70;;;;;;2061869;28;20061;-69
2022/06/18 01:09:51;;;;;;;4.75;3.05;;;19.60;80.60;;;;;;2062403;28;20037;-70
2022/06/18 01:11:02;;;;;;;3.95;2.90;;;19.60;80.80;;;;;;2070071;28;20022;-69
2022/06/18 01:12:03;;;;;;;2.88;2.58;;;19.60;81.60;;;;;;2062160;28;20045;-70
2022/06/18 01:13:10;;;;;;;3.33;2.60;;;19.50;81.60;;;;;;2062055;28;20105;-71
2022/06/18 01:14:15;;;;;;;2.72;2.53;;;19.50;81.40;;;;;;2062958;28;20034;-69
2022/06/18 01:15:20;;;;;;;4.50;2.85;;;19.50;81.40;;;;;;2070263;28;20052;-69
2022/06/18 01:16:22;;;;;;;2.95;2.60;;;19.50;81.50;;;;;;2070190;28;20518;-68
2022/06/18 01:17:24;;;;;;;4.18;2.75;;;19.50;81.60;;;;;;2062462;28;20088;-69
2022/06/18 01:18:26;;;;;;;3.20;2.70;;;19.40;81.70;;;;;;2061807;28;20030;-69
2022/06/18 01:19:40;;;;;;;7.53;2.80;;;19.40;81.80;;;;;;2062608;28;20031;-69
2022/06/18 01:21:00;;;;;;;3.78;2.67;;;19.40;81.90;;;;;;2070528;28;20030;-68
2022/06/18 01:22:08;;;;;;;3.10;2.80;;;19.40;82.00;;;;;;2070161;28;20319;-69
2022/06/18 01:23:27;;;;;;;3.00;2.70;;;19.40;82.10;;;;;;2063357;28;20041;-69
2022/06/18 01:24:39;;;;;;;2.97;2.70;;;19.40;82.20;;;;;;2063954;28;20050;-70
2022/06/18 01:25:44;;;;;;;4.38;2.80;;;19.30;82.30;;;;;;2070018;28;20065;-69
2022/06/18 01:26:48;;;;;;;4.40;2.58;;;19.30;82.40;;;;;;2069990;28;20033;-69
2022/06/18 01:27:50;;;;;;;3.25;2.85;;;19.30;82.50;;;;;;2062397;28;20047;-69
2022/06/18 01:28:56;;;;;;;3.72;2.80;;;19.30;82.60;;;;;;2062308;28;20049;-69
2022/06/18 01:29:57;;;;;;;4.03;2.58;;;19.30;82.70;;;;;;2069849;28;20100;-70
2022/06/18 01:31:02;;;;;;;2.80;2.60;;;19.30;82.70;;;;;;2070044;28;20126;-69
2022/06/18 01:32:07;;;;;;;3.00;2.70;;;19.30;82.80;;;;;;2069772;28;20472;-69
2022/06/18 01:33:09;;;;;;;4.95;2.90;;;19.30;82.80;;;;;;2069839;28;20946;-69
2022/06/18 01:34:15;;;;;;;2.97;2.45;;;19.20;83.60;;;;;;2061523;28;20539;-69
2022/06/18 01:35:21;;;;;;;3.05;2.75;;;19.30;82.90;;;;;;2062605;28;20031;-67
2022/06/18 01:36:38;;;;;;;3.58;2.97;;;19.20;82.80;;;;;;2070049;28;20030;-69
2022/06/18 01:37:40;;;;;;;3.35;3.00;;;19.20;82.80;;;;;;2069329;28;20036;-69
2022/06/18 01:38:54;;;;;;;2.83;2.60;;;19.20;82.90;;;;;;2063236;28;20026;-70
2022/06/18 01:39:55;;;;;;;4.75;3.20;;;19.20;83.30;;;;;;2053695;28;20031;-69
2022/06/18 01:42:39;;;;;;;3.47;2.80;;;19.20;83.40;;;;;;2069772;28;20030;-69
2022/06/18 01:43:40;;;;;;;4.28;2.80;;;19.20;83.40;;;;;;2062364;28;20030;-69
2022/06/18 01:44:44;;;;;;;3.33;3.03;;;19.10;83.40;;;;;;2061398;28;20145;-69
2022/06/18 01:45:53;;;;;;;4.45;3.00;;;19.10;83.50;;;;;;2100483;28;20036;-69
2022/06/18 01:47:03;;;;;;;3.80;2.95;;;19.10;83.60;;;;;;2069826;28;20134;-69
2022/06/18 01:48:21;;;;;;;3.55;2.63;;;19.10;83.60;;;;;;2070374;28;20045;-69
2022/06/18 01:49:27;;;;;;;3.58;2.90;;;19.00;83.70;;;;;;2069691;28;20042;-70
2022/06/18 01:50:38;;;;;;;3.55;2.80;;;19.00;83.90;;;;;;2062031;28;20088;-69
2022/06/18 01:51:42;;;;;;;3.10;2.65;;;19.00;83.80;;;;;;2069877;28;20104;-69
2022/06/18 01:52:47;;;;;;;3.33;2.80;;;19.00;84.00;;;;;;2069472;28;20504;-69
2022/06/18 01:53:53;;;;;;;3.28;2.70;;;19.00;83.80;;;;;;2061965;28;20034;-69
2022/06/18 01:54:57;;;;;;;4.45;3.03;;;19.00;84.00;;;;;;2062235;28;20026;-69
2022/06/18 01:56:06;;;;;;;3.88;2.70;;;19.00;84.00;;;;;;2061928;28;20031;-69
2022/06/18 01:57:17;;;;;;;3.22;2.92;;;18.90;83.80;;;;;;2063237;28;20027;-69
2022/06/18 01:58:43;;;;;;;3.20;2.90;;;18.90;83.80;;;;;;2069599;28;20099;-69
2022/06/18 02:00:02;;;;;;;3.00;2.80;;;18.90;83.60;;;;;;2065815;28;20465;-69
2022/06/18 02:01:30;;;;;;;4.30;3.00;;;18.90;83.60;;;;;;2069861;28;20041;-69
2022/06/18 02:02:31;;;;;;;5.38;2.70;;;18.90;83.80;;;;;;2069619;28;20063;-69
2022/06/18 02:03:32;;;;;;;3.20;2.90;;;18.90;83.60;;;;;;2061458;28;20116;-69
2022/06/18 02:04:34;;;;;;;3.33;2.80;;;18.90;83.40;;;;;;2060695;28;20034;-69
2022/06/18 02:05:37;;;;;;;4.82;3.22;;;18.90;83.40;;;;;;2068799;28;20518;-69
2022/06/18 02:06:38;;;;;;;3.40;3.00;;;18.90;83.30;;;;;;2061693;28;20113;-69
2022/06/18 02:07:40;;;;;;;4.75;2.85;;;18.90;83.40;;;;;;2061253;28;20030;-69
2022/06/18 02:08:41;;;;;;;4.72;3.58;;;18.90;83.40;;;;;;2069228;28;20478;-69
2022/06/18 02:10:06;;;;;;;3.22;2.92;;;18.90;83.50;;;;;;2061569;28;20042;-69
2022/06/18 02:11:10;;;;;;;4.28;2.95;;;18.90;83.50;;;;;;2069880;28;20026;-69
2022/06/18 02:12:16;;;;;;;3.65;3.00;;;18.90;83.40;;;;;;2070243;28;20022;-69
2022/06/18 02:13:18;;;;;;;4.60;3.00;;;18.90;83.40;;;;;;2070245;28;20510;-69
2022/06/18 02:14:20;;;;;;;4.28;2.95;;;18.80;83.40;;;;;;2070121;28;20029;-69
2022/06/18 02:15:27;;;;;;;2.80;2.60;;;18.80;83.50;;;;;;2070113;28;20022;-69
2022/06/18 02:16:34;;;;;;;3.47;2.85;;;18.80;83.50;;;;;;2069358;28;20030;-69
2022/06/18 02:17:36;;;;;;;3.67;2.80;;;18.80;83.70;;;;;;2062067;28;20026;-69
2022/06/18 02:18:38;;;;;;;3.20;2.90;;;18.70;83.70;;;;;;2061430;28;20572;-69
2022/06/18 02:19:40;;;;;;;2.97;2.78;;;18.70;83.80;;;;;;2069502;28;20048;-69
2022/06/18 02:20:45;;;;;;;3.08;2.83;;;18.70;83.80;;;;;;2070164;28;20487;-69
2022/06/18 02:21:49;;;;;;;2.92;2.72;;;18.70;83.90;;;;;;2069556;28;20026;-69
2022/06/18 02:22:53;;;;;;;2.83;2.63;;;18.70;84.00;;;;;;2061773;28;20033;-69
2022/06/18 02:23:54;;;;;;;2.90;2.60;;;18.70;84.00;;;;;;2069560;28;20026;-69
2022/06/18 02:24:56;;;;;;;3.85;3.00;;;18.70;84.10;;;;;;2070239;28;20152;-69
2022/06/18 02:25:57;;;;;;;3.85;2.90;;;18.70;84.20;;;;;;2069513;28;20582;-69
2022/06/18 02:26:58;;;;;;;3.03;2.72;;;18.60;84.20;;;;;;2069902;28;20062;-69
2022/06/18 02:28:02;;;;;;;5.18;3.10;;;18.60;84.30;;;;;;2069585;28;20030;-69
2022/06/18 02:29:05;;;;;;;3.65;2.97;;;18.60;84.40;;;;;;2069498;28;20037;-69
2022/06/18 02:30:18;;;;;;;3.20;2.90;;;18.60;84.60;;;;;;2070276;28;20036;-69
2022/06/18 02:31:24;;;;;;;3.58;2.80;;;18.60;84.60;;;;;;2069613;28;20034;-69
2022/06/18 02:32:38;;;;;;;3.60;3.00;;;18.60;84.60;;;;;;2069446;28;20865;-69
2022/06/18 02:33:53;;;;;;;4.35;3.00;;;18.60;84.70;;;;;;2061547;28;20489;-69
2022/06/18 02:34:54;;;;;;;2.97;2.55;;;18.60;84.90;;;;;;2063727;28;20026;-69
2022/06/18 02:35:58;;;;;;;3.67;2.90;;;18.50;84.80;;;;;;2069428;28;20106;-69
2022/06/18 02:37:15;;;;;;;3.30;2.78;;;18.50;84.90;;;;;;2061779;28;20516;-69
2022/06/18 02:38:20;;;;;;;3.22;3.00;;;18.50;85.00;;;;;;2063614;28;20023;-69
2022/06/18 02:39:34;;;;;;;4.22;2.70;;;18.50;85.10;;;;;;2069787;28;20555;-69
2022/06/18 02:40:35;;;;;;;3.40;3.10;;;18.50;85.10;;;;;;2069411;28;20109;-69
2022/06/18 02:41:40;;;;;;;3.10;2.90;;;18.40;85.20;;;;;;2061483;28;20022;-69
2022/06/18 02:42:41;;;;;;;4.03;2.92;;;18.40;85.20;;;;;;2101249;28;20027;-69
2022/06/18 02:43:44;;;;;;;4.00;2.80;;;18.40;85.20;;;;;;2061314;28;20508;-69
2022/06/18 02:44:47;;;;;;;3.28;2.97;;;18.40;85.20;;;;;;2061825;28;20092;-69
2022/06/18 02:45:53;;;;;;;3.22;2.90;;;18.40;85.10;;;;;;2062238;28;20023;-69
2022/06/18 02:46:55;;;;;;;3.67;2.90;;;18.40;85.20;;;;;;2069961;28;20110;-69
2022/06/18 02:47:57;;;;;;;4.65;2.95;;;18.40;85.00;;;;;;2069885;28;20038;-70
2022/06/18 02:49:02;;;;;;;3.28;2.85;;;18.40;85.10;;;;;;2070134;28;20049;-69
2022/06/18 02:50:11;;;;;;;3.42;2.97;;;18.40;85.20;;;;;;2071577;28;20105;-69
2022/06/18 02:51:13;;;;;;;3.40;2.90;;;18.40;85.20;;;;;;2070950;28;20083;-69
2022/06/18 02:52:16;;;;;;;3.88;2.80;;;18.40;85.30;;;;;;2063127;28;20053;-69
2022/06/18 02:53:17;;;;;;;3.83;2.80;;;18.40;85.30;;;;;;2062977;28;20045;-69
2022/06/18 02:54:19;;;;;;;3.30;3.00;;;18.40;85.40;;;;;;2062744;28;20033;-69
2022/06/18 02:55:29;;;;;;;4.13;2.85;;;18.30;85.30;;;;;;2070845;28;20053;-69
2022/06/18 02:56:30;;;;;;;4.55;2.85;;;18.40;85.40;;;;;;2063919;28;20037;-69
2022/06/18 02:57:31;;;;;;;4.60;3.00;;;18.40;85.40;;;;;;2070844;28;20860;-69
2022/06/18 02:58:38;;;;;;;3.63;3.22;;;18.30;85.30;;;;;;2070605;28;20051;-69
2022/06/18 02:59:39;;;;;;;4.18;2.85;;;18.30;85.50;;;;;;2063635;28;20172;-69
2022/06/18 03:00:44;;;;;;;3.30;3.00;;;18.30;85.50;;;;;;2062917;28;20058;-69
2022/06/18 03:01:45;;;;;;;3.30;3.00;;;18.30;85.60;;;;;;2062995;28;20072;-68
2022/06/18 03:02:46;;;;;;;3.47;2.67;;;18.30;85.70;;;;;;2070978;28;20533;-69
2022/06/18 03:03:50;;;;;;;3.10;2.80;;;18.30;85.70;;;;;;2070761;28;20038;-69
2022/06/18 03:04:51;;;;;;;3.00;2.80;;;18.30;85.70;;;;;;2070953;28;20029;-68
2022/06/18 03:05:55;;;;;;;3.45;3.15;;;18.30;85.70;;;;;;2071413;28;20132;-70
2022/06/18 03:06:55;;;;;;;4.35;2.97;;;18.30;85.80;;;;;;2070598;28;20128;-69
2022/06/18 03:08:00;;;;;;;3.47;3.15;;;18.30;85.80;;;;;;2062829;28;20510;-69
2022/06/18 03:09:01;;;;;;;3.40;3.10;;;18.30;85.90;;;;;;2070491;28;20034;-70
2022/06/18 03:12:43;;;;;;;7.03;2.97;;;18.30;86.80;;;;;;2070540;28;20034;-70
2022/06/18 03:13:45;;;;;;;3.92;3.10;;;18.30;87.10;;;;;;2070627;28;20037;-69
2022/06/18 03:14:46;;;;;;;3.42;3.13;;;18.20;87.30;;;;;;2070608;28;20084;-68
2022/06/18 03:15:49;;;;;;;4.13;3.20;;;18.20;87.60;;;;;;2062477;28;20105;-69
2022/06/18 03:16:49;;;;;;;3.63;3.17;;;18.20;87.80;;;;;;2062743;28;20018;-68
2022/06/18 03:17:51;;;;;;;3.45;3.15;;;18.20;88.80;;;;;;2070430;28;20178;-69
2022/06/18 03:18:54;;;;;;;3.92;3.10;;;18.20;88.30;;;;;;2070361;28;20454;-69
2022/06/18 03:20:02;;;;;;;3.83;2.92;;;18.10;88.30;;;;;;2070634;28;20538;-68
2022/06/18 03:21:15;;;;;;;3.80;3.13;;;18.10;88.60;;;;;;2070644;28;20041;-68
2022/06/18 03:22:20;;;;;;;3.30;3.00;;;18.10;88.70;;;;;;2070856;28;20052;-69
2022/06/18 03:23:23;;;;;;;3.55;3.20;;;18.10;88.90;;;;;;2071323;28;20038;-69
2022/06/18 03:24:24;;;;;;;3.13;2.83;;;18.10;89.00;;;;;;2062409;28;20027;-69
2022/06/18 03:25:25;;;;;;;3.40;3.10;;;18.10;89.00;;;;;;2054514;28;20043;-69
2022/06/18 03:26:26;;;;;;;5.13;3.00;;;18.10;89.10;;;;;;2054543;28;20034;-68
2022/06/18 03:27:29;;;;;;;3.65;3.10;;;18.10;89.20;;;;;;2055203;28;20117;-69
2022/06/18 03:28:34;;;;;;;3.50;3.20;;;18.10;89.20;;;;;;2062621;28;20034;-68
2022/06/18 03:29:35;;;;;;;3.13;2.83;;;18.10;89.20;;;;;;2062248;28;20121;-68
2022/06/18 03:30:36;;;;;;;4.20;3.33;;;18.10;89.20;;;;;;2062405;28;20072;-67
2022/06/18 03:31:36;;;;;;;3.40;3.10;;;18.10;89.20;;;;;;2070629;28;20026;-68
2022/06/18 03:32:37;;;;;;;4.53;3.40;;;18.10;89.50;;;;;;2070473;28;20048;-69
2022/06/18 03:33:38;;;;;;;3.60;3.10;;;18.10;89.50;;;;;;2062454;28;20034;-68
2022/06/18 03:34:40;;;;;;;3.85;3.25;;;18.10;89.50;;;;;;2070541;28;20060;-69
2022/06/18 03:35:44;;;;;;;3.72;3.25;;;18.20;89.60;;;;;;2062406;28;20127;-69
2022/06/18 03:36:45;;;;;;;4.50;3.22;;;18.20;89.50;;;;;;2055305;28;20031;-69
2022/06/18 03:37:46;;;;;;;3.42;3.13;;;18.20;89.40;;;;;;2062311;28;20022;-68
2022/06/18 03:38:47;;;;;;;4.00;3.40;;;18.30;89.30;;;;;;2054156;28;20038;-68
2022/06/18 03:39:47;;;;;;;3.28;2.97;;;18.30;89.10;;;;;;2062599;28;20038;-69
2022/06/18 03:40:51;;;;;;;3.60;3.03;;;18.30;89.10;;;;;;2062461;28;20022;-68
2022/06/18 03:41:53;;;;;;;3.10;2.88;;;18.30;88.90;;;;;;2062828;28;20037;-69
2022/06/18 03:42:53;;;;;;;4.35;3.00;;;18.40;88.60;;;;;;2062410;28;20069;-69
2022/06/18 03:43:56;;;;;;;3.67;3.10;;;18.40;88.60;;;;;;2070431;28;20034;-68
2022/06/18 03:44:58;;;;;;;3.25;2.95;;;18.50;88.30;;;;;;2062574;28;20063;-69
2022/06/18 03:46:04;;;;;;;3.33;3.03;;;18.50;88.00;;;;;;2070551;28;20034;-68
2022/06/18 03:47:06;;;;;;;3.30;3.00;;;18.60;87.70;;;;;;2070472;28;20026;-68
2022/06/18 03:48:37;;;;;;;4.55;3.00;;;18.60;87.50;;;;;;2062941;28;20033;-67
2022/06/18 03:49:37;;;;;;;3.92;3.20;;;18.60;87.30;;;;;;2053684;28;20042;-68
2022/06/18 03:50:39;;;;;;;3.50;3.20;;;18.70;87.20;;;;;;2070243;28;20033;-68
2022/06/18 03:51:40;;;;;;;3.30;2.80;;;18.70;87.00;;;;;;2062338;28;20030;-68
2022/06/18 03:52:41;;;;;;;3.90;3.05;;;18.80;87.00;;;;;;2070275;28;20038;-68
2022/06/18 03:53:42;;;;;;;3.17;2.88;;;18.90;86.80;;;;;;2070212;28;20034;-68
2022/06/18 03:54:42;;;;;;;3.40;2.90;;;18.90;86.50;;;;;;2054270;28;20051;-68
2022/06/18 03:55:44;;;;;;;3.20;2.90;;;18.90;86.30;;;;;;2062395;28;20019;-68
2022/06/18 03:56:46;;;;;;;3.63;2.95;;;19.00;86.30;;;;;;2070509;28;20389;-68
2022/06/18 03:57:47;;;;;;;3.20;2.90;;;19.00;86.20;;;;;;2070389;28;20045;-68
2022/06/18 03:58:49;;;;;;;3.25;2.95;;;19.10;85.90;;;;;;2070306;28;20507;-69
2022/06/18 03:59:50;;;;;;;3.55;3.25;;;19.10;85.80;;;;;;2070329;28;20061;-69
2022/06/18 04:00:51;;;;;;;3.65;3.28;;;19.20;85.70;;;;;;2069824;28;20041;-69
2022/06/18 04:01:53;;;;;;;3.70;3.20;;;19.20;85.40;;;;;;2070315;28;20036;-68
2022/06/18 04:02:54;;;;;;;5.38;3.45;;;19.30;85.30;;;;;;2070553;28;20030;-69
2022/06/18 04:03:54;;;;;;;3.95;3.30;;;19.40;84.80;;;;;;2070372;28;20041;-69
2022/06/18 04:05:03;;;;;;;4.60;3.28;;;19.60;84.40;;;;;;2070352;28;20559;-68
2022/06/18 04:06:06;;;;;;;3.53;2.80;;;19.90;83.40;;;;;;2070272;28;20029;-69
2022/06/18 04:07:15;;;;;;;3.22;2.90;;;20.20;82.40;;;;;;2070258;28;20034;-68
2022/06/18 04:08:29;;;;;;;3.25;2.95;;;20.60;81.10;;;;;;2064785;28;20026;-69
2022/06/18 04:09:36;;;;;;;4.53;3.17;;;21.00;79.20;;;;;;2070398;28;20113;-68
2022/06/18 04:10:40;;;;;;;3.17;2.78;;;21.30;77.90;;;;;;2070223;28;20038;-68
2022/06/18 04:11:40;;;;;;;3.30;2.78;;;21.70;76.60;;;;;;2054254;28;20039;-68
2022/06/18 04:12:41;;;;;;;4.07;2.88;;;21.90;75.70;;;;;;2062310;28;20833;-69
2022/06/18 04:13:54;;;;;;;3.42;2.63;;;22.20;74.70;;;;;;2070200;28;20496;-69
2022/06/18 04:15:15;;;;;;;3.25;2.58;;;22.50;73.60;;;;;;2065087;28;20022;-69
2022/06/18 04:16:23;;;;;;;3.53;3.00;;;22.70;72.20;;;;;;2063224;28;20587;-69
2022/06/18 04:17:24;;;;;;;3.47;3.13;;;22.80;71.10;;;;;;2070484;28;20033;-68
2022/06/18 04:18:25;;;;;;;4.75;3.25;;;22.90;70.70;;;;;;2062244;28;20027;-68
2022/06/18 04:19:26;;;;;;;3.40;2.90;;;23.10;70.30;;;;;;2062311;28;20027;-69
2022/06/18 04:20:33;;;;;;;3.65;3.13;;;23.20;69.70;;;;;;2070473;28;20018;-69
2022/06/18 04:21:36;;;;;;;3.30;3.00;;;23.30;69.00;;;;;;2063349;28;20083;-69
2022/06/18 04:22:38;;;;;;;5.57;2.92;;;23.50;68.80;;;;;;2062594;28;20030;-69
2022/06/18 04:23:42;;;;;;;3.90;2.80;;;23.60;68.40;;;;;;2062439;28;20057;-69
2022/06/18 04:24:43;;;;;;;4.75;2.78;;;23.70;67.60;;;;;;2071250;28;20176;-70
2022/06/18 04:25:44;;;;;;;5.10;2.95;;;23.80;66.90;;;;;;2063427;28;20109;-69
2022/06/18 04:26:46;;;;;;;4.30;2.50;;;23.80;66.50;;;;;;2063091;28;20037;-70
2022/06/18 04:27:48;;;;;;;4.85;2.72;;;23.80;66.10;;;;;;2062814;28;20038;-69
2022/06/18 04:28:48;;;;;;;4.18;2.42;;;23.70;66.40;;;;;;2062476;28;20035;-69
2022/06/18 04:29:52;;;;;;;4.22;3.10;;;23.80;67.10;;;;;;2063008;28;20776;-68
2022/06/18 04:30:56;;;;;;;5.78;2.60;;;23.90;65.60;;;;;;2062710;28;20042;-68
2022/06/18 04:32:08;;;;;;;2.75;2.45;;;24.10;65.40;;;;;;2063711;28;20496;-69
2022/06/18 04:33:12;;;;;;;3.40;2.70;;;24.30;65.00;;;;;;2070363;28;20039;-69
2022/06/18 04:34:21;;;;;;;4.00;2.47;;;24.40;64.40;;;;;;2070322;28;20048;-69
2022/06/18 04:35:42;;;;;;;3.60;2.75;;;24.50;64.00;;;;;;2070206;28;20541;-67
2022/06/18 04:36:45;;;;;;;2.85;2.58;;;24.60;64.40;;;;;;2070237;28;20026;-69
2022/06/18 04:37:54;;;;;;;2.78;2.50;;;24.70;63.20;;;;;;2070152;28;20022;-69
2022/06/18 04:39:28;;;;;;;2.50;2.30;;;24.90;62.80;;;;;;2066652;28;20061;-68
2022/06/18 04:40:49;;;;;;;3.15;2.30;;;25.10;62.00;;;;;;2069897;28;20044;-69
2022/06/18 04:41:53;;;;;;;2.75;2.50;;;25.30;61.10;;;;;;2070134;28;20030;-69
2022/06/18 04:43:01;;;;;;;4.13;2.53;;;25.50;60.60;;;;;;2062203;28;20038;-69
2022/06/18 04:44:03;;;;;;;4.03;2.65;;;25.60;59.50;;;;;;2055712;28;20069;-69
2022/06/18 04:45:04;;;;;;;5.93;2.70;;;25.80;59.30;;;;;;2062075;28;20027;-69
2022/06/18 04:46:15;;;;;;;4.63;2.45;;;25.70;59.20;;;;;;2063440;28;20635;-68
2022/06/18 04:47:22;;;;;;;3.65;2.42;;;25.70;59.30;;;;;;2062729;28;20026;-69
2022/06/18 04:48:22;;;;;;;3.75;2.28;;;25.90;58.90;;;;;;2061786;28;20027;-69
2022/06/18 04:49:24;;;;;;;3.88;2.20;;;26.00;58.20;;;;;;2062140;28;20030;-69
2022/06/18 04:50:28;;;;;;;3.40;2.42;;;26.20;57.80;;;;;;2070001;28;20034;-69
2022/06/18 04:51:29;;;;;;;2.50;2.30;;;26.30;57.40;;;;;;2070120;28;20117;-69
2022/06/18 04:52:30;;;;;;;2.40;2.20;;;26.40;57.10;;;;;;2062014;28;20061;-68
2022/06/18 04:53:35;;;;;;;2.83;2.17;;;26.40;57.00;;;;;;2069922;28;20029;-68
2022/06/18 04:54:42;;;;;;;2.78;2.38;;;26.40;57.00;;;;;;2061946;28;20117;-69
2022/06/18 04:55:42;;;;;;;2.95;2.30;;;26.30;57.00;;;;;;2054826;28;20023;-68
2022/06/18 04:56:43;;;;;;;3.03;2.30;;;26.40;56.90;;;;;;2070166;28;20041;-69
2022/06/18 04:57:45;;;;;;;2.60;2.40;;;26.50;56.70;;;;;;2070008;28;20041;-69
2022/06/18 04:58:46;;;;;;;2.85;2.35;;;26.60;56.50;;;;;;2061637;28;20141;-69
2022/06/18 04:59:47;;;;;;;4.25;2.72;;;26.60;56.20;;;;;;2062368;28;20030;-69
2022/06/18 05:00:48;;;;;;;2.58;2.38;;;26.70;56.00;;;;;;2062239;28;20058;-70
2022/06/18 05:02:07;;;;;;;2.88;2.33;;;26.60;55.50;;;;;;2063440;28;20026;-69
2022/06/18 05:03:23;;;;;;;2.30;2.10;;;26.50;55.90;;;;;;2065121;28;20038;-68
2022/06/18 05:04:36;;;;;;;2.75;2.13;;;26.60;55.90;;;;;;2063643;28;20046;-69
2022/06/18 05:06:06;;;;;;;2.20;2.00;;;26.80;55.90;;;;;;2041436;29;20043;-69
2022/06/18 05:07:12;;;;;;;3.60;2.30;;;27.00;55.70;;;;;;2045656;29;20047;-69
2022/06/18 05:08:23;;;;;;;2.50;2.20;;;27.20;55.40;;;;;;2069680;28;20038;-69
2022/06/18 05:09:46;;;;;;;2.55;2.20;;;27.30;55.00;;;;;;2064837;28;20770;-68
2022/06/18 05:11:06;;;;;;;2.60;2.25;;;27.40;54.60;;;;;;2064536;28;20039;-69
2022/06/18 05:12:19;;;;;;;2.63;2.15;;;27.50;54.40;;;;;;2063332;28;20436;-70
2022/06/18 05:13:24;;;;;;;2.22;2.03;;;27.70;54.10;;;;;;2069220;28;20077;-69
2022/06/18 05:14:36;;;;;;;2.75;2.20;;;27.80;53.80;;;;;;2070671;28;20022;-69
2022/06/18 05:15:42;;;;;;;6.28;2.50;;;27.90;53.60;;;;;;2069934;28;20054;-69
2022/06/18 05:16:43;;;;;;;2.67;2.40;;;27.90;53.10;;;;;;2070141;28;20039;-70
2022/06/18 05:17:46;;;;;;;3.92;2.53;;;28.00;52.80;;;;;;2070142;28;20029;-70
2022/06/18 05:18:48;;;;;;;3.05;2.28;;;28.00;52.60;;;;;;2061995;28;20038;-69
2022/06/18 05:19:49;;;;;;;2.42;2.20;;;28.10;52.50;;;;;;2061852;28;20094;-70
2022/06/18 05:20:52;;;;;;;3.03;2.03;;;28.10;52.00;;;;;;2069836;28;20026;-70
2022/06/18 05:21:57;;;;;;;2.95;2.35;;;28.10;52.10;;;;;;2062550;28;20030;-68
2022/06/18 05:22:59;;;;;;;2.72;2.10;;;28.20;51.90;;;;;;2061989;28;20113;-68
2022/06/18 05:24:00;;;;;;;3.65;2.20;;;28.20;51.40;;;;;;2061664;28;20034;-68
2022/06/18 05:25:00;;;;;;;2.38;2.20;;;28.40;51.40;;;;;;2069916;28;20014;-68
2022/06/18 05:26:02;;;;;;;2.40;2.13;;;28.50;51.20;;;;;;2070584;28;20034;-69
2022/06/18 05:27:04;;;;;;;2.70;2.13;;;28.60;51.00;;;;;;2069991;28;20109;-68
2022/06/18 05:28:05;;;;;;;3.55;2.22;;;28.60;50.80;;;;;;2061805;28;20065;-69
2022/06/18 05:29:10;;;;;;;2.42;2.00;;;28.70;50.80;;;;;;2053719;28;20580;-68
2022/06/18 05:30:15;;;;;;;2.75;2.22;;;28.90;50.50;;;;;;2062286;28;20512;-68
2022/06/18 05:31:20;;;;;;;3.45;2.22;;;29.00;49.90;;;;;;2069819;28;20673;-68
2022/06/18 05:32:22;;;;;;;12.27;10.20;;;29.10;49.90;;;;;;2061722;28;20453;-67
2022/06/18 05:33:23;;;;;;;8.43;6.63;;;29.10;49.70;;;;;;2061657;28;20048;-68
2022/06/18 05:34:27;;;;;;;6.30;3.53;;;29.30;49.70;;;;;;2061921;28;20027;-68
2022/06/18 05:35:28;;;;;;;3.50;2.90;;;29.40;49.60;;;;;;2061509;28;20062;-68
2022/06/18 05:36:30;;;;;;;4.07;2.60;;;29.40;49.30;;;;;;2103420;28;20016;-68
2022/06/18 05:37:34;;;;;;;3.17;2.40;;;29.60;49.10;;;;;;2062094;28;20049;-68
2022/06/18 05:38:35;;;;;;;3.63;2.13;;;29.60;48.70;;;;;;2061681;28;20026;-68
2022/06/18 05:39:36;;;;;;;3.92;2.20;;;29.60;48.50;;;;;;2061614;28;20104;-68
2022/06/18 05:40:36;;;;;;;2.20;2.00;;;29.70;48.20;;;;;;2053473;28;20030;-68
2022/06/18 05:41:37;;;;;;;2.10;1.90;;;29.60;48.20;;;;;;2061471;28;20824;-68
2022/06/18 05:42:38;;;;;;;2.42;2.22;;;29.70;48.20;;;;;;2069615;28;20117;-68
2022/06/18 05:43:39;;;;;;;3.55;2.30;;;29.90;48.20;;;;;;2061420;28;20026;-67
2022/06/18 05:44:39;;;;;;;3.05;2.20;;;30.00;48.20;;;;;;2061630;28;20255;-68
2022/06/18 05:45:42;;;;;;;2.75;2.00;;;30.10;48.00;;;;;;2061651;28;20050;-68
2022/06/18 05:46:43;;;;;;;3.42;1.92;;;30.10;47.80;;;;;;2069760;28;20030;-68